Date,TemperatureHighF,TemperatureAvgF,TemperatureLowF,DewpointHighF,DewpointAvgF,DewpointLowF,HumidityHigh,HumidityAvg,HumidityLow,PressureMaxIn,PressureMinIn,WindSpeedMaxMPH,WindSpeedAvgMPH,GustSpeedMaxMPH,PrecipitationSumIn
2013-1-1,85,80,76,80,74,64,99,81,57,29.98,29.88,21,8,29,0.01
2013-1-2,83,80,76,79,75,68,99,87,68,29.95,29.86,20,8,27,0.05
2013-1-3,87,81,75,79,76,69,99,86,74,30.00,29.89,22,11,33,0.02
2013-1-4,87,80,75,80,77,68,99,89,69,30.04,29.93,22,12,32,0.32
2013-1-5,88,81,72,82,78,69,99,90,78,30.03,29.93,21,14,30,0.01
2013-1-6,89,81,75,80,77,69,99,89,80,29.99,29.89,24,15,35,0.06
2013-1-7,93,81,70,87,77,53,99,88,78,29.97,29.88,24,15,35,0.01
2013-1-8,93,81,74,85,77,67,99,86,67,30.01,29.89,24,15,33,0.01
2013-1-9,87,82,73,79,75,67,99,82,70,30.02,29.90,29,13,43,0.05
2013-1-10,94,80,73,82,76,67,99,88,71,29.99,29.88,21,9,30,0.12
2013-1-11,85,80,75,78,75,70,99,84,67,29.91,29.82,17,7,28,0.07
2013-1-12,85,80,74,76,72,65,99,77,58,29.88,29.80,20,8,26,0.18
2013-1-13,87,80,74,71,69,65,81,70,57,29.93,29.83,12,4,18,0.00
2013-1-14,88,79,75,73,68,64,89,70,55,29.96,29.87,13,4,21,0.01
2013-1-15,87,79,76,69,66,64,75,65,53,29.94,29.84,14,4,21,0.00
2013-1-16,84,80,77,74,69,65,82,69,57,29.95,29.84,14,7,21,0.00
2013-1-17,85,80,76,71,66,62,76,64,49,29.96,29.86,14,6,18,0.00
2013-1-18,86,81,76,76,72,69,99,77,60,30.00,29.88,14,6,18,0.01
2013-1-19,86,80,77,78,71,66,98,75,56,29.98,29.86,14,6,21,0.00
2013-1-20,83,79,74,77,73,67,99,81,66,29.99,29.85,21,6,28,0.11
2013-1-21,86,81,77,77,74,72,92,81,69,29.97,29.86,22,8,28,0.04
2013-1-22,84,80,75,78,74,69,99,81,71,30.01,29.89,21,10,34,0.04
2013-1-23,84,80,75,78,74,69,99,82,70,30.02,29.91,21,11,27,0.15
2013-1-24,84,80,78,76,73,68,90,79,62,30.01,29.90,17,10,24,0.00
2013-1-25,86,80,76,78,75,67,99,84,73,30.01,29.91,17,7,24,0.00
2013-1-26,86,81,76,77,74,66,99,79,63,30.01,29.91,20,10,27,0.00
2013-1-27,85,81,76,77,75,73,99,83,69,30.01,29.91,20,10,26,0.02
2013-1-28,84,80,74,76,73,70,99,80,67,30.03,29.94,17,8,25,0.01
2013-1-29,85,80,78,74,72,68,85,75,63,30.00,29.89,16,8,24,0.00
2013-1-30,86,79,72,75,73,68,99,82,65,29.99,29.88,20,9,27,0.02
2013-1-31,83,80,75,76,72,64,95,77,55,29.99,29.89,24,13,31,0.01
2013-2-1,85,80,70,79,71,63,90,74,60,29.95,29.86,21,10,28,0.00
2013-2-2,84,79,74,78,74,69,99,84,65,29.97,29.88,24,11,30,0.08
2013-2-3,86,79,73,72,67,60,90,68,52,29.94,29.85,14,5,18,0.01
2013-2-4,84,80,78,70,65,57,77,62,40,29.93,29.82,15,8,24,0.00
2013-2-5,84,80,78,73,68,63,78,66,58,29.94,29.84,17,10,24,0.00
2013-2-6,87,80,76,74,71,66,83,74,62,29.95,29.85,16,9,22,0.00
2013-2-7,90,81,79,74,72,65,83,75,62,29.93,29.83,15,8,22,0.00
2013-2-8,88,80,74,81,71,64,90,74,59,29.94,29.83,17,8,24,0.00
2013-2-9,89,80,76,79,74,67,99,81,66,29.94,29.85,21,10,27,0.08
2013-2-10,85,80,77,77,71,67,96,74,59,29.95,29.87,17,8,24,0.00
2013-2-11,87,80,75,75,69,64,88,70,53,29.97,29.87,14,6,23,0.00
2013-2-12,85,80,76,71,68,62,78,69,57,29.96,29.88,17,7,27,0.01
2013-2-13,90,80,74,71,69,63,77,69,57,29.95,29.87,17,8,23,0.00
2013-2-14,84,80,74,77,72,59,97,78,66,30.01,29.90,22,11,28,0.04
2013-2-15,84,79,74,76,72,67,99,78,59,30.01,29.91,22,12,31,0.12
2013-2-16,86,80,78,76,70,64,94,72,53,29.99,29.86,24,12,31,0.01
2013-2-17,87,81,78,80,73,66,88,77,62,29.99,29.88,19,10,24,0.00
2013-2-18,88,80,75,77,73,60,88,79,71,29.99,29.90,22,15,30,0.00
2013-2-19,84,80,78,76,72,61,92,77,69,29.98,29.88,21,13,29,0.00
2013-2-20,92,80,78,79,71,61,84,73,60,29.96,29.84,21,13,30,0.00
2013-2-21,85,80,78,76,73,65,92,78,66,29.94,29.83,18,10,27,0.00
2013-2-22,96,80,64,78,73,52,99,78,64,29.95,29.85,17,7,23,0.00
2013-2-23,83,78,74,80,76,74,99,94,78,29.95,29.84,22,8,30,0.17
2013-2-24,84,80,75,77,72,67,99,77,59,29.96,29.84,21,10,27,0.07
2013-2-25,85,80,78,74,71,64,86,73,53,29.95,29.83,17,10,24,0.00
2013-2-26,89,80,79,78,75,71,94,85,76,29.98,29.87,20,12,25,0.00
2013-2-27,88,81,79,77,75,71,92,82,68,30.01,29.88,18,10,26,0.00
2013-2-28,86,80,78,77,73,60,92,79,64,29.97,29.85,18,8,23,0.00
2013-3-1,85,80,78,73,70,65,83,71,56,29.94,29.83,14,7,20,0.00
2013-3-2,85,80,78,74,72,67,85,77,65,29.93,29.82,13,7,19,0.00
2013-3-3,86,81,78,76,73,70,89,78,62,29.99,29.88,14,7,20,0.00
2013-3-4,89,81,78,76,74,66,88,79,63,30.01,29.87,12,6,17,0.00
2013-3-5,91,81,70,84,74,65,89,79,63,29.99,29.90,12,5,16,0.00
2013-3-6,91,81,78,75,74,64,87,80,70,30.01,29.90,13,6,18,0.00
2013-3-7,89,81,79,80,74,72,89,78,67,30.01,29.90,11,6,18,0.00
2013-3-8,89,81,78,73,70,56,82,69,55,30.01,29.91,11,6,17,0.00
2013-3-9,85,81,78,72,70,66,82,71,59,29.98,29.85,11,6,17,0.00
2013-3-10,87,81,79,74,72,70,84,75,58,29.96,29.82,11,5,17,0.00
2013-3-11,87,81,78,76,73,66,89,78,64,29.92,29.81,13,4,17,0.00
2013-3-12,92,81,77,77,74,64,93,80,65,29.96,29.84,15,6,21,0.00
2013-3-13,91,81,73,78,72,60,87,74,59,29.95,29.85,14,6,23,0.00
2013-3-14,87,78,77,73,70,69,79,77,75,29.89,29.83,9,3,15,0.00
2013-3-15,87,79,77,67,66,59,70,63,50,29.93,29.82,12,6,18,0.00
2013-3-16,86,80,77,67,63,59,68,57,45,29.97,29.84,16,8,22,0.00
2013-3-17,88,80,76,68,65,59,68,59,46,29.99,29.90,16,8,22,0.00
2013-3-18,88,80,74,76,68,55,99,69,49,29.98,29.88,18,8,24,0.15
2013-3-19,85,79,74,79,73,69,99,84,65,29.93,29.84,20,10,27,0.04
2013-3-20,88,80,74,78,74,69,99,84,64,29.92,29.82,17,7,23,0.05
2013-3-21,86,82,80,79,76,74,89,82,72,29.93,29.81,13,8,22,0.00
2013-3-22,91,83,75,84,75,69,88,79,63,29.96,29.85,15,8,21,0.00
2013-3-23,83,80,80,78,77,75,90,88,84,29.93,29.88,14,10,20,0.00
2013-3-24,81,80,80,75,74,64,84,81,77,29.90,29.88,14,9,21,0.00
2013-3-25,90,82,79,74,71,68,83,69,59,29.96,29.82,18,10,24,0.00
2013-3-26,87,82,79,76,73,65,85,74,62,29.99,29.87,17,8,26,0.00
2013-3-27,91,82,80,78,75,73,90,78,68,29.99,29.87,14,8,23,0.00
2013-3-28,89,83,80,78,76,69,92,80,64,29.97,29.86,15,8,21,0.00
2013-3-29,96,83,81,84,74,67,88,75,58,30.00,29.89,15,8,21,0.00
2013-3-30,91,83,80,75,73,64,83,72,58,30.03,29.93,16,9,22,0.00
2013-3-31,90,82,77,74,71,67,83,69,54,30.04,29.93,18,11,27,0.01
2013-4-1,88,82,77,80,72,66,97,71,61,30.02,29.93,21,12,30,0.00
2013-4-2,88,82,77,78,72,63,99,73,59,30.02,29.93,24,13,35,0.09
2013-4-3,96,81,74,82,71,64,98,73,57,30.01,29.92,22,10,29,0.01
2013-4-4,93,82,79,73,70,64,82,67,52,30.00,29.91,17,8,23,0.00
2013-4-5,86,81,80,75,72,66,81,76,62,30.01,29.89,14,8,23,0.00
2013-4-6,90,82,75,73,71,67,76,69,58,30.02,29.91,14,9,22,0.00
2013-4-7,97,82,74,78,72,64,89,72,55,30.00,29.88,15,8,24,0.00
2013-4-8,89,82,76,76,73,68,87,74,58,29.97,29.86,17,8,27,0.02
2013-4-9,87,82,79,76,71,66,81,69,50,29.98,29.87,19,10,26,0.00
2013-4-10,87,81,73,78,71,64,99,71,52,29.96,29.85,17,6,24,0.07
2013-4-11,87,82,76,76,71,67,90,72,54,29.94,29.85,16,10,24,0.02
2013-4-12,87,82,78,83,72,68,91,74,58,29.94,29.85,18,10,30,0.11
2013-4-13,87,82,77,78,74,66,96,77,60,29.95,29.85,21,10,33,0.14
2013-4-14,85,82,78,78,75,73,97,80,72,29.94,29.87,18,12,26,0.02
2013-4-15,93,82,77,82,76,73,99,82,71,29.97,29.88,21,10,28,0.34
2013-4-16,90,82,80,79,76,68,98,82,70,29.97,29.87,15,8,22,0.02
2013-4-17,90,83,80,80,75,67,87,76,64,29.94,29.84,13,8,22,0.00
2013-4-18,88,82,76,81,75,71,99,78,68,29.94,29.85,17,9,22,0.38
2013-4-19,86,82,73,77,74,69,92,76,64,29.96,29.86,20,11,26,0.00
2013-4-20,91,80,77,78,74,71,99,82,70,29.96,29.85,21,12,35,0.18
2013-4-21,85,79,74,77,75,69,99,87,66,29.94,29.84,19,7,30,0.39
2013-4-22,84,79,74,78,73,68,99,83,65,29.92,29.83,17,8,24,0.69
2013-4-23,86,81,76,78,74,70,99,79,63,29.94,29.84,18,11,25,0.15
2013-4-24,86,81,76,78,74,71,99,78,65,29.94,29.84,21,10,27,0.13
2013-4-25,86,82,80,77,74,73,89,78,68,29.93,29.84,14,8,24,0.00
2013-4-26,88,81,76,78,74,70,99,79,64,29.93,29.84,19,9,29,0.40
2013-4-27,85,80,77,79,75,72,99,86,71,29.91,29.83,14,6,24,0.02
2013-4-28,86,81,78,79,76,74,99,86,70,29.91,29.81,13,6,20,0.00
2013-4-29,82,79,76,80,78,74,99,97,86,29.91,29.81,17,6,24,0.99
2013-4-30,87,82,79,80,78,74,99,88,67,29.93,29.83,14,7,19,0.00
2013-5-1,86,82,79,80,78,76,99,89,74,29.92,29.84,15,7,21,0.02
2013-5-2,87,82,80,80,78,76,99,88,74,29.89,29.81,11,6,17,0.00
2013-5-3,88,83,80,82,80,79,99,93,81,29.89,29.79,14,7,19,0.05
2013-5-4,86,82,77,83,80,77,99,93,80,29.89,29.80,13,7,19,0.26
2013-5-5,86,82,80,80,78,73,97,85,73,29.93,29.79,14,7,17,0.00
2013-5-6,86,82,80,77,74,71,88,76,66,29.97,29.88,11,6,16,0.00
2013-5-7,88,82,80,78,75,70,90,78,67,30.04,29.91,15,7,20,0.00
2013-5-8,89,82,79,77,74,70,88,77,67,30.06,29.96,17,10,22,0.00
2013-5-9,88,83,80,78,73,69,93,73,60,30.04,29.95,16,7,22,0.00
2013-5-10,92,81,78,81,78,68,99,91,78,30.01,29.89,17,8,27,0.12
2013-5-11,87,82,77,82,78,75,99,89,71,29.98,29.86,17,6,24,0.09
2013-5-12,87,83,81,81,75,72,88,77,63,29.95,29.86,14,8,21,0.00
2013-5-13,90,82,78,81,78,74,99,88,71,29.95,29.87,21,8,28,0.40
2013-5-14,90,83,80,80,77,74,98,81,68,29.96,29.86,18,11,25,0.00
2013-5-15,87,83,78,80,76,73,99,81,69,29.94,29.85,17,11,24,0.04
2013-5-16,91,83,78,76,73,66,82,73,64,29.95,29.85,17,10,24,0.00
2013-5-17,90,83,74,84,75,68,94,78,66,29.97,29.88,17,9,26,0.00
2013-5-18,86,82,79,79,76,72,97,82,71,29.99,29.89,18,8,26,0.04
2013-5-19,89,83,80,80,76,69,97,80,69,29.96,29.87,14,8,21,0.01
2013-5-20,84,81,78,81,78,71,99,89,79,29.95,29.86,20,9,30,0.04
2013-5-21,90,83,81,78,75,73,88,78,67,29.93,29.85,15,8,21,0.00
2013-5-22,91,81,75,80,76,68,99,87,68,29.93,29.84,27,10,34,0.24
2013-5-23,87,82,79,77,75,70,92,77,62,29.95,29.86,18,9,26,0.04
2013-5-24,98,83,79,79,75,71,91,77,64,29.97,29.86,17,8,22,0.00
2013-5-25,92,83,80,81,78,74,99,85,72,29.97,29.89,17,10,24,0.01
2013-5-26,86,84,81,81,79,77,98,86,74,29.96,29.87,17,10,24,0.01
2013-5-27,86,83,77,81,78,71,96,84,72,29.94,29.87,22,12,30,0.05
2013-5-28,86,83,81,81,78,75,99,85,74,29.95,29.87,21,11,30,0.01
2013-5-29,87,83,80,81,78,76,99,83,71,29.93,29.86,21,12,30,0.02
2013-5-30,86,83,81,79,77,69,93,81,72,29.97,29.88,22,14,29,0.02
2013-5-31,86,83,81,79,77,69,92,82,70,29.97,29.90,24,13,31,0.00
2013-6-1,92,83,78,80,77,66,99,83,68,29.97,29.89,24,12,29,0.13
2013-6-2,86,82,78,81,78,75,99,87,75,29.98,29.89,23,11,33,0.12
2013-6-3,86,82,78,81,79,76,99,89,78,29.99,29.90,19,9,30,0.11
2013-6-4,86,83,80,79,78,75,94,84,73,30.01,29.90,19,10,26,0.00
2013-6-5,88,83,81,78,75,71,90,78,68,29.96,29.86,19,12,27,0.00
2013-6-6,86,83,80,74,72,69,78,70,61,29.96,29.88,15,8,21,0.00
2013-6-7,84,83,81,74,72,70,81,69,61,29.97,29.89,12,6,16,0.00
2013-6-8,87,83,78,81,76,68,99,79,64,29.99,29.90,19,8,26,0.02
2013-6-9,86,82,80,82,78,76,99,86,74,29.95,29.87,19,11,28,0.12
2013-6-10,86,83,74,80,77,70,93,82,69,29.96,29.87,17,10,25,0.00
2013-6-11,87,83,80,80,77,74,96,81,67,29.98,29.90,24,12,31,0.00
2013-6-12,91,83,81,79,77,74,93,80,70,29.98,29.90,20,12,27,0.00
2013-6-13,87,83,79,82,79,74,99,87,73,29.96,29.88,24,11,31,0.07
2013-6-14,97,84,74,90,78,67,99,83,70,29.97,29.88,21,11,30,0.00
2013-6-15,106,83,71,91,77,61,99,80,68,29.95,29.88,23,13,27,0.00
2013-6-16,106,84,71,95,76,56,89,78,69,29.95,29.87,21,13,28,0.00
2013-6-17,96,83,67,84,76,58,93,80,68,29.96,29.87,22,13,31,0.06
2013-6-18,101,81,75,82,77,66,99,88,75,29.99,29.86,23,11,33,0.34
2013-6-19,90,82,74,82,78,67,99,88,73,29.94,29.85,23,12,30,0.01
2013-6-20,91,82,76,80,74,62,99,78,62,29.96,29.87,18,10,28,0.15
2013-6-21,98,83,75,80,72,59,84,71,57,29.97,29.88,17,7,24,0.00
2013-6-22,92,83,76,86,74,57,87,75,60,29.96,29.87,19,10,27,0.00
2013-6-23,94,83,75,84,76,62,83,78,70,29.96,29.88,19,11,26,0.00
2013-6-24,92,83,78,80,76,70,88,79,69,29.97,29.89,19,10,24,0.00
2013-6-25,92,82,79,88,79,69,99,91,75,29.96,29.88,21,8,27,0.15
2013-6-26,79,79,79,79,79,79,99,99,99,29.89,29.89,4,4,8,0.15
2013-6-27,79,79,79,79,79,79,99,99,99,29.89,29.89,4,4,8,0.15
2013-6-28,91,81,75,79,75,69,99,84,61,29.95,29.85,19,8,25,0.24
2013-6-29,86,79,75,80,77,74,99,93,76,29.96,29.85,17,7,28,0.07
2013-6-30,89,83,77,78,76,69,89,79,66,29.96,29.86,17,10,28,0.01
2013-7-1,89,83,80,83,73,67,84,72,55,29.99,29.91,17,9,24,0.01
2013-7-2,97,81,77,78,73,66,98,77,61,30.00,29.90,17,6,26,0.22
2013-7-3,89,82,78,79,75,72,95,79,65,29.98,29.89,17,9,24,0.01
2013-7-4,89,83,80,77,75,70,86,76,60,29.98,29.89,21,10,27,0.01
2013-7-5,90,83,79,76,73,67,84,73,63,29.95,29.88,17,7,23,0.00
2013-7-6,89,83,80,78,75,70,87,77,63,29.96,29.85,10,5,15,0.00
2013-7-7,88,82,79,81,78,73,99,88,72,29.93,29.84,18,6,24,0.31
2013-7-8,87,84,79,81,78,67,99,85,70,29.96,29.85,17,10,26,0.14
2013-7-9,82,77,32,80,77,75,99,93,87,29.99,29.82,17,4,27,0.44
2013-7-10,91,83,81,81,78,71,97,83,71,29.99,29.91,18,10,26,0.00
2013-7-11,92,83,81,83,78,67,94,85,68,29.95,29.86,15,6,21,0.02
2013-7-12,88,85,81,77,74,72,88,71,63,29.92,29.85,11,6,14,0.00
2013-7-13,88,84,80,76,74,68,81,73,63,29.96,29.87,11,6,17,0.00
2013-7-14,88,84,80,77,74,70,88,74,60,29.95,29.87,16,7,22,0.00
2013-7-15,89,84,81,81,76,69,99,77,60,29.96,29.89,16,9,25,0.01
2013-7-16,91,83,80,82,78,73,99,85,67,29.97,29.89,18,10,27,0.04
2013-7-17,90,83,79,81,79,74,99,89,75,29.97,29.89,14,7,19,0.01
2013-7-18,96,84,77,82,78,62,99,81,68,29.99,29.88,23,14,31,0.00
2013-7-19,93,84,82,80,75,67,85,75,66,29.99,29.90,24,14,33,0.00
2013-7-20,96,83,79,84,74,65,93,76,56,29.96,29.88,22,11,35,0.01
2013-7-21,95,83,80,81,77,69,99,82,68,29.95,29.86,16,8,24,0.01
2013-7-22,97,84,77,83,78,66,98,81,70,29.97,29.88,18,11,27,0.00
2013-7-23,96,84,82,79,76,72,90,79,68,29.95,29.84,20,12,27,0.00
2013-7-24,97,84,82,78,75,72,86,74,59,29.95,29.86,14,7,19,0.00
2013-7-25,90,84,82,77,75,65,83,74,63,30.03,29.91,15,8,21,0.00
2013-7-26,92,84,79,76,74,66,80,72,60,30.02,29.93,11,7,19,0.00
2013-7-27,99,84,80,79,75,65,85,75,63,30.00,29.91,15,9,21,0.00
2013-7-28,89,84,79,78,75,70,91,75,59,29.98,29.90,17,5,25,0.11
2013-7-29,92,84,82,78,76,74,85,76,65,30.00,29.93,13,6,17,0.00
2013-7-30,89,84,82,79,76,70,90,76,61,30.00,29.91,16,7,21,0.04
2013-7-31,88,84,81,77,74,70,87,73,58,29.98,29.89,13,7,23,0.01
2013-8-1,88,84,82,78,75,73,84,74,64,29.98,29.90,19,11,27,0.00
2013-8-2,87,84,80,80,76,73,95,77,68,29.98,29.89,27,14,36,0.08
2013-8-3,88,84,82,81,76,71,94,77,64,29.97,29.88,19,10,27,0.02
2013-8-4,89,84,81,79,75,71,88,73,58,29.96,29.84,17,7,25,0.00
2013-8-5,88,84,80,76,73,70,87,70,55,29.94,29.83,16,7,22,0.00
2013-8-6,86,82,79,82,77,71,99,86,69,29.91,29.81,22,5,27,0.11
2013-8-7,85,81,32,80,78,74,98,86,72,29.87,29.80,11,4,15,0.09
2013-8-8,90,84,78,80,75,69,99,77,59,29.86,29.78,19,7,30,0.21
2013-8-9,100,81,32,80,76,70,99,81,38,30.04,29.80,19,9,29,0.48
2013-8-10,83,69,32,79,77,73,93,66,75,30.05,29.84,15,6,24,0.00
2013-8-11,87,84,82,79,76,69,89,77,68,29.91,29.81,18,11,26,0.01
2013-8-12,88,84,82,77,74,72,84,72,60,29.92,29.81,17,9,25,0.00
2013-8-13,90,84,81,78,76,66,87,76,64,29.92,29.84,19,11,27,0.00
2013-8-14,90,84,82,77,74,64,80,71,59,29.92,29.84,21,10,27,0.00
2013-8-15,88,83,76,76,72,63,87,69,55,29.90,29.80,14,5,17,0.02
2013-8-16,88,84,80,76,73,69,82,71,57,29.89,29.81,11,6,17,0.01
2013-8-17,88,83,79,79,76,74,88,81,65,29.88,29.81,12,5,17,0.00
2013-8-18,91,83,81,79,78,75,91,84,70,29.88,29.77,16,7,24,0.05
2013-8-19,83,44,32,79,78,72,90,21,79,29.90,29.80,11,1,16,2.20
2013-8-20,88,80,78,77,76,72,92,87,60,29.94,29.83,11,4,15,0.31
2013-8-21,90,82,79,79,76,74,91,83,65,29.91,29.83,17,6,26,0.28
2013-8-22,90,85,82,78,75,72,83,72,59,29.88,29.79,15,7,21,0.00
2013-8-23,96,84,80,77,73,71,86,70,58,29.86,29.79,22,10,31,0.04
2013-8-24,90,84,81,78,76,72,89,77,62,29.90,29.80,18,8,28,0.02
2013-8-25,90,84,80,78,76,72,89,76,58,29.91,29.83,11,4,15,0.08
2013-8-26,88,81,80,78,76,73,90,86,70,29.90,29.81,13,3,21,0.79
2013-8-27,86,81,79,78,77,73,90,87,66,29.92,29.81,14,6,21,0.79
2013-8-28,89,83,78,78,75,69,90,78,58,29.94,29.84,18,3,29,0.07
2013-8-29,88,81,79,76,75,71,90,83,59,29.97,29.86,6,1,10,0.05
2013-8-30,88,82,77,80,76,73,92,82,63,29.93,29.84,11,2,19,0.41
2013-8-31,90,78,77,77,76,71,98,93,60,29.89,29.80,9,2,17,0.83
2013-9-1,89,80,78,79,78,74,98,91,65,29.84,29.74,11,3,17,0.04
2013-9-2,84,81,81,78,77,75,89,88,80,29.82,29.72,7,3,10,0.02
2013-9-3,82,80,32,78,77,75,92,88,84,29.85,29.73,6,3,11,1.81
2013-9-4,88,82,80,79,77,75,91,85,70,29.91,29.79,12,5,20,0.09
2013-9-5,88,83,79,78,76,74,88,82,68,29.91,29.81,10,4,17,0.00
2013-9-6,88,84,80,79,76,71,87,75,58,29.94,29.83,17,6,27,0.09
2013-9-7,87,84,83,78,76,74,83,78,69,29.92,29.85,14,6,20,0.11
2013-9-8,90,85,83,76,74,71,79,69,57,29.91,29.82,14,8,21,0.00
2013-9-9,90,85,82,74,72,69,76,66,53,29.92,29.83,14,6,22,0.00
2013-9-10,90,84,78,76,73,69,85,69,55,29.94,29.84,16,5,24,0.17
2013-9-11,90,83,78,77,73,71,86,72,57,29.90,29.75,11,2,14,0.02
2013-9-12,86,79,76,78,76,73,96,92,71,29.79,29.63,6,1,14,0.09
2013-9-13,91,84,79,78,76,74,92,77,59,29.74,29.64,8,2,12,0.01
2013-9-14,88,86,83,79,77,72,82,76,64,29.91,29.80,17,9,22,0.13
2013-9-15,89,85,80,79,76,71,86,75,62,29.95,29.83,22,9,34,0.08
2013-9-16,93,85,82,78,75,69,81,72,63,29.89,29.79,20,11,27,0.01
2013-9-17,89,85,82,76,75,59,78,72,64,29.89,29.77,15,9,24,0.00
2013-9-18,86,84,83,78,77,75,83,78,73,29.89,29.81,12,7,19,0.17
2013-9-19,84,81,79,79,77,75,92,87,76,29.93,29.83,14,2,21,0.09
2013-9-20,90,83,78,77,74,71,91,76,57,29.92,29.80,10,2,16,0.00
2013-9-21,90,82,76,74,73,70,92,75,53,29.88,29.78,8,1,11,0.00
2013-9-22,90,83,77,75,74,72,91,75,57,29.93,29.82,9,3,13,0.00
2013-9-23,90,85,82,76,73,70,78,68,54,29.97,29.88,14,6,23,0.00
2013-9-24,90,85,82,75,72,66,74,64,48,29.93,29.84,15,7,20,0.00
2013-9-25,90,86,82,75,72,70,75,65,53,29.91,29.81,11,5,17,0.01
2013-9-26,90,85,83,74,72,68,73,64,53,29.89,29.78,11,5,17,0.00
2013-9-27,91,85,78,78,74,70,88,69,54,29.91,29.80,12,4,17,0.00
2013-9-28,89,86,81,78,76,65,82,73,64,29.93,29.83,13,7,19,0.00
2013-9-29,100,86,78,78,75,69,80,70,60,29.92,29.83,17,9,23,0.00
2013-9-30,92,86,82,76,73,66,75,66,53,29.93,29.83,18,10,24,0.00
2013-10-1,97,85,79,86,71,61,79,62,52,29.90,29.78,18,10,27,0.00
2013-10-2,93,84,80,78,73,69,83,68,58,29.88,29.77,19,8,25,0.04
2013-10-3,89,85,79,76,74,71,85,71,61,29.91,29.81,15,6,26,0.24
2013-10-4,88,84,79,77,74,71,83,72,61,29.92,29.81,16,5,21,0.06
2013-10-5,90,82,75,75,73,69,92,76,53,29.94,29.82,14,3,19,0.15
2013-10-6,89,83,79,77,73,69,87,72,53,29.93,29.82,13,6,17,0.08
2013-10-7,89,85,80,76,74,72,83,71,63,29.95,29.84,17,10,27,0.00
2013-10-8,88,85,81,76,72,68,79,66,55,29.96,29.86,19,8,26,0.06
2013-10-9,88,83,81,75,72,68,79,68,56,29.93,29.82,17,6,24,0.07
2013-10-10,89,84,80,75,73,68,82,69,55,29.89,29.79,18,7,26,0.31
2013-10-11,89,84,80,75,72,67,82,67,50,29.88,29.78,16,7,22,0.08
2013-10-12,90,84,78,76,73,70,89,69,55,29.89,29.78,24,8,36,0.12
2013-10-13,86,83,77,76,74,71,89,74,66,29.89,29.78,24,10,39,0.45
2013-10-14,88,84,81,75,73,70,79,68,57,29.87,29.77,17,10,25,0.00
2013-10-15,88,83,79,75,72,70,82,70,57,29.90,29.79,19,5,23,0.04
2013-10-16,88,82,77,75,72,70,88,73,59,29.91,29.80,9,2,14,0.01
2013-10-17,90,81,32,76,73,71,90,76,55,29.90,29.82,8,2,17,0.01
2013-10-18,89,82,78,76,74,71,90,77,57,29.90,29.79,14,4,18,0.01
2013-10-19,88,84,79,77,75,72,87,74,62,29.88,29.78,16,6,24,0.20
2013-10-20,89,85,83,76,74,72,78,70,60,29.92,29.81,15,8,22,0.02
2013-10-21,89,85,81,76,72,69,81,66,54,29.91,29.81,19,10,25,0.00
2013-10-22,94,83,76,81,72,67,88,71,60,29.90,29.80,24,6,34,0.46
2013-10-23,88,83,76,76,73,72,88,72,59,29.89,29.78,2,0,11,0.01
2013-10-24,88,84,81,75,73,70,80,70,59,29.95,29.83,1,0,8,0.07
2013-10-25,86,76,32,76,74,70,93,75,65,29.95,29.85,0,0,2,1.11
2013-10-26,88,84,80,76,73,67,85,71,58,29.93,29.83,19,5,27,0.22
2013-10-27,90,84,80,76,71,63,78,65,55,29.91,29.80,21,10,33,0.00
2013-10-28,92,83,78,84,74,61,86,75,61,29.88,29.78,21,10,33,0.04
2013-10-29,96,84,78,75,72,63,78,69,58,29.90,29.78,18,10,27,0.05
2013-10-30,87,83,81,74,72,68,77,69,56,29.87,29.76,13,6,21,0.00
2013-10-31,91,77,32,75,72,68,85,62,56,29.83,29.72,20,7,33,0.09
2013-11-1,83,80,32,76,73,70,85,76,70,29.85,29.73,18,6,27,0.12
2013-11-2,87,84,81,75,73,71,80,70,62,29.92,29.79,17,8,21,1.20
2013-11-3,87,84,79,74,71,69,76,66,56,29.89,29.78,10,7,21,0.00
2013-11-4,88,83,81,71,70,69,72,65,55,29.86,29.74,9,6,13,0.00
2013-11-5,87,82,77,77,70,67,85,68,56,29.85,29.75,12,5,17,0.53
2013-11-6,86,83,80,73,70,68,75,66,55,29.87,29.77,11,5,16,0.02
2013-11-7,87,83,81,75,71,67,74,67,56,29.87,29.78,12,6,19,0.00
2013-11-8,87,83,81,75,72,69,79,69,60,29.91,29.80,17,8,24,0.00
2013-11-9,90,83,78,77,72,65,83,70,61,29.90,29.80,23,10,33,0.06
2013-11-10,94,84,81,81,71,68,72,66,55,29.90,29.79,22,13,33,0.00
2013-11-11,87,83,81,75,72,63,80,70,60,29.92,29.81,19,12,29,0.00
2013-11-12,92,84,81,74,72,60,76,67,57,29.89,29.78,20,14,28,0.00
2013-11-13,88,83,74,75,72,65,79,68,57,29.87,29.77,21,10,35,0.00
2013-11-14,93,84,74,74,72,62,74,68,55,29.92,29.81,14,8,20,0.00
2013-11-15,93,83,81,72,70,63,73,65,55,29.90,29.78,13,7,19,0.00
2013-11-16,94,82,76,74,71,68,85,72,54,29.85,29.75,16,5,22,0.01
2013-11-17,88,81,78,74,71,64,85,73,53,29.82,29.68,11,3,17,0.00
2013-11-18,89,79,74,73,69,65,88,73,48,29.76,29.65,9,1,14,0.00
2013-11-19,88,79,74,74,71,68,87,76,58,29.85,29.70,15,2,20,0.39
2013-11-20,87,82,32,80,75,70,84,77,62,29.92,29.80,16,4,24,0.08
2013-11-21,86,82,80,75,73,67,83,74,62,29.90,29.80,16,8,23,0.04
2013-11-22,88,83,79,74,71,65,77,67,53,29.85,29.75,14,6,20,0.00
2013-11-23,87,82,77,73,71,65,84,69,58,29.84,29.75,13,6,18,0.09
2013-11-24,87,84,81,73,71,69,74,65,58,30.01,29.75,17,10,24,0.00
2013-11-25,82,79,78,74,72,71,83,80,70,30.02,29.97,20,9,25,0.22
2013-11-26,94,82,72,76,70,60,77,65,53,30.02,29.90,21,11,30,0.00
2013-11-27,96,83,78,73,68,61,68,62,56,29.97,29.86,18,11,26,0.00
2013-11-28,89,82,77,71,66,56,71,58,44,30.02,29.91,17,8,27,0.01
2013-11-29,90,82,79,75,66,59,71,58,47,30.02,29.92,17,8,27,0.00
2013-11-30,89,82,73,69,66,59,73,59,46,30.03,29.91,19,10,24,0.05
2013-12-1,94,81,73,73,69,62,84,68,56,30.01,29.91,17,9,24,0.05
2013-12-2,88,82,74,78,72,65,78,71,59,30.06,29.93,15,6,23,0.00
2013-12-3,91,82,80,75,72,67,78,72,64,30.13,30.00,14,7,18,0.02
2013-12-4,86,82,80,72,68,62,74,63,53,30.10,29.98,16,9,24,0.00
2013-12-5,87,82,75,70,67,60,69,61,49,30.07,29.99,14,7,21,0.00
2013-12-6,87,81,77,73,68,58,77,64,53,30.07,29.96,15,6,27,0.00
2013-12-7,91,80,76,73,69,66,77,69,54,30.06,29.95,14,5,21,0.09
2013-12-8,87,82,78,74,71,69,83,69,56,30.08,29.96,14,8,21,0.00
2013-12-9,86,79,78,74,72,62,86,77,62,30.11,30.00,22,8,30,0.07
2013-12-10,85,81,72,72,67,60,84,63,46,30.10,30.00,21,13,31,0.01
2013-12-11,90,82,75,73,67,60,75,62,53,30.12,30.01,21,13,27,0.00
2013-12-12,87,81,73,73,70,62,83,68,53,30.09,29.98,23,11,35,0.02
2013-12-13,86,82,77,73,69,64,84,65,49,30.09,29.99,20,11,27,0.04
2013-12-14,87,80,74,77,70,60,86,73,55,30.12,30.01,27,14,37,0.09
2013-12-15,95,82,67,76,69,54,75,65,53,30.11,30.00,26,15,34,0.00
2013-12-16,112,82,69,83,68,41,76,63,44,30.10,29.97,24,16,34,0.00
2013-12-17,97,81,68,82,68,53,70,63,50,30.09,29.97,23,14,32,0.00
2013-12-18,97,81,71,82,67,55,81,62,43,30.08,29.97,23,14,35,0.00
2013-12-19,93,80,32,74,68,55,82,68,54,30.07,29.97,22,11,31,0.05
2013-12-20,89,81,76,73,68,60,79,64,53,30.05,29.95,23,12,30,0.07
2013-12-21,89,81,71,75,66,54,73,61,51,30.06,29.96,21,12,31,0.00
2013-12-22,91,81,68,71,66,55,80,62,48,30.07,29.98,19,8,27,0.04
2013-12-23,88,81,75,78,69,62,79,67,47,30.07,29.97,17,7,25,0.09
2013-12-24,91,82,76,79,71,63,79,71,58,30.03,29.93,15,9,27,0.06
2013-12-25,90,78,78,73,72,62,81,79,72,30.07,29.95,16,8,24,0.02
2013-12-26,88,81,76,78,72,66,81,74,64,30.13,29.98,17,9,27,0.44
2013-12-27,92,80,70,72,69,59,78,68,60,30.14,30.02,17,11,26,0.00
2013-12-28,87,80,75,74,68,61,78,67,56,30.11,30.01,23,10,29,0.02
2013-12-29,88,79,70,72,70,58,81,73,62,30.09,29.98,23,10,30,0.04
2013-12-30,88,80,75,72,71,62,83,69,1,30.11,30.01,21,10,27,0.05
2013-12-31,90,80,76,75,71,64,84,75,63,30.08,29.99,21,11,30,0.24
2014-1-1,88,80,77,75,70,64,82,70,59,30.09,29.99,20,12,30,0.12
2014-1-2,91,80,70,76,69,60,76,68,60,30.06,29.97,21,14,32,0.01